sensor_id;sensor_type;location;lat;lon;timestamp;pressure;altitude;pressure_sealevel;temperature;humidity
48029;BME280;33808;37.368;127.108;2022-12-05T00:02:08;101984.94;;;24.78;13.36
48029;BME280;33808;37.368;127.108;2022-12-05T00:04:38;101986.06;;;24.87;13.47
48029;BME280;33808;37.368;127.108;2022-12-05T00:07:08;101987.00;;;24.75;13.59
48029;BME280;33808;37.368;127.108;2022-12-05T00:09:37;101981.94;;;24.83;13.57
48029;BME280;33808;37.368;127.108;2022-12-05T00:12:07;101985.66;;;24.93;13.41
48029;BME280;33808;37.368;127.108;2022-12-05T00:14:38;101996.09;;;24.96;13.61
48029;BME280;33808;37.368;127.108;2022-12-05T00:17:08;101992.13;;;25.02;13.35
48029;BME280;33808;37.368;127.108;2022-12-05T00:19:38;101989.88;;;25.08;13.31
48029;BME280;33808;37.368;127.108;2022-12-05T00:22:08;101986.50;;;25.18;13.17
48029;BME280;33808;37.368;127.108;2022-12-05T00:24:38;101989.81;;;25.21;13.22
48029;BME280;33808;37.368;127.108;2022-12-05T00:27:08;101978.31;;;25.08;13.12
48029;BME280;33808;37.368;127.108;2022-12-05T00:29:37;101987.50;;;25.04;13.10
48029;BME280;33808;37.368;127.108;2022-12-05T00:32:07;101984.97;;;25.02;13.13
48029;BME280;33808;37.368;127.108;2022-12-05T00:34:37;101990.19;;;25.04;13.03
48029;BME280;33808;37.368;127.108;2022-12-05T00:37:06;101990.19;;;25.04;12.98
48029;BME280;33808;37.368;127.108;2022-12-05T00:39:36;101989.44;;;25.02;13.09
48029;BME280;33808;37.368;127.108;2022-12-05T00:42:06;101996.63;;;25.01;12.91
48029;BME280;33808;37.368;127.108;2022-12-05T00:44:35;101982.72;;;24.96;12.55
48029;BME280;33808;37.368;127.108;2022-12-05T00:47:05;101986.38;;;24.95;12.81
48029;BME280;33808;37.368;127.108;2022-12-05T00:49:35;101985.31;;;24.98;12.69
48029;BME280;33808;37.368;127.108;2022-12-05T00:52:05;101982.06;;;25.05;12.73
48029;BME280;33808;37.368;127.108;2022-12-05T00:54:35;101984.72;;;25.05;12.95
48029;BME280;33808;37.368;127.108;2022-12-05T00:57:04;101993.84;;;25.03;12.67
48029;BME280;33808;37.368;127.108;2022-12-05T00:59:34;101998.47;;;25.01;12.74
48029;BME280;33808;37.368;127.108;2022-12-05T01:02:03;101996.06;;;25.09;12.50
48029;BME280;33808;37.368;127.108;2022-12-05T01:04:33;101994.47;;;25.06;12.48
48029;BME280;33808;37.368;127.108;2022-12-05T01:07:03;101995.16;;;24.97;12.72
48029;BME280;33808;37.368;127.108;2022-12-05T01:09:32;101988.81;;;24.98;12.46
48029;BME280;33808;37.368;127.108;2022-12-05T01:12:02;101989.28;;;24.92;12.53
48029;BME280;33808;37.368;127.108;2022-12-05T01:14:32;101992.69;;;24.94;12.53
48029;BME280;33808;37.368;127.108;2022-12-05T01:17:02;101993.53;;;22.42;9.49
48029;BME280;33808;37.368;127.108;2022-12-05T01:19:32;101984.69;;;21.36;14.11
48029;BME280;33808;37.368;127.108;2022-12-05T01:22:02;101983.81;;;20.72;15.23
48029;BME280;33808;37.368;127.108;2022-12-05T01:24:31;101986.66;;;20.51;15.77
48029;BME280;33808;37.368;127.108;2022-12-05T01:27:01;101987.38;;;20.21;16.03
48029;BME280;33808;37.368;127.108;2022-12-05T01:29:31;101981.88;;;20.24;16.04
48029;BME280;33808;37.368;127.108;2022-12-05T01:32:00;101974.50;;;20.47;16.05
48029;BME280;33808;37.368;127.108;2022-12-05T01:34:30;101984.22;;;20.31;16.02
48029;BME280;33808;37.368;127.108;2022-12-05T01:37:00;101985.84;;;20.33;16.07
48029;BME280;33808;37.368;127.108;2022-12-05T01:39:30;101976.47;;;20.10;16.25
48029;BME280;33808;37.368;127.108;2022-12-05T01:42:00;101984.31;;;20.12;16.13
48029;BME280;33808;37.368;127.108;2022-12-05T01:46:59;101970.28;;;20.09;16.34
48029;BME280;33808;37.368;127.108;2022-12-05T01:49:40;101967.47;;;20.46;16.01
48029;BME280;33808;37.368;127.108;2022-12-05T01:52:16;101964.47;;;20.70;15.81
48029;BME280;33808;37.368;127.108;2022-12-05T01:54:49;101963.06;;;20.78;15.74
48029;BME280;33808;37.368;127.108;2022-12-05T01:57:21;101964.81;;;20.95;15.85
48029;BME280;33808;37.368;127.108;2022-12-05T01:59:55;101961.31;;;21.41;15.47
48029;BME280;33808;37.368;127.108;2022-12-05T02:02:27;101959.75;;;20.91;16.05
48029;BME280;33808;37.368;127.108;2022-12-05T02:05:20;101945.53;;;20.92;16.16
48029;BME280;33808;37.368;127.108;2022-12-05T02:07:51;101942.00;;;21.23;15.67
48029;BME280;33808;37.368;127.108;2022-12-05T02:10:21;101933.38;;;21.34;15.76
48029;BME280;33808;37.368;127.108;2022-12-05T02:12:51;101927.28;;;21.48;15.50
48029;BME280;33808;37.368;127.108;2022-12-05T02:15:35;101926.38;;;21.17;15.61
48029;BME280;33808;37.368;127.108;2022-12-05T02:18:27;101919.69;;;21.26;15.76
48029;BME280;33808;37.368;127.108;2022-12-05T02:35:18;101905.31;;;21.44;15.99
48029;BME280;33808;37.368;127.108;2022-12-05T02:41:03;101889.97;;;21.49;15.87
48029;BME280;33808;37.368;127.108;2022-12-05T02:43:45;101877.13;;;21.41;15.88
48029;BME280;33808;37.368;127.108;2022-12-05T02:46:22;101886.69;;;21.44;15.78
48029;BME280;33808;37.368;127.108;2022-12-05T02:48:56;101876.59;;;21.51;15.77
48029;BME280;33808;37.368;127.108;2022-12-05T02:51:42;101877.06;;;21.57;15.50
48029;BME280;33808;37.368;127.108;2022-12-05T02:54:17;101867.88;;;21.77;15.30
48029;BME280;33808;37.368;127.108;2022-12-05T02:56:48;101845.28;;;21.85;15.21
48029;BME280;33808;37.368;127.108;2022-12-05T02:59:19;101848.31;;;22.07;14.90
48029;BME280;33808;37.368;127.108;2022-12-05T03:01:50;101844.72;;;21.94;15.14
48029;BME280;33808;37.368;127.108;2022-12-05T03:04:22;101842.13;;;21.78;15.11
48029;BME280;33808;37.368;127.108;2022-12-05T03:07:13;101850.03;;;22.08;14.99
48029;BME280;33808;37.368;127.108;2022-12-05T03:09:57;101834.41;;;22.45;14.71
48029;BME280;33808;37.368;127.108;2022-12-05T03:12:31;101824.66;;;22.03;15.07
48029;BME280;33808;37.368;127.108;2022-12-05T03:15:03;101827.31;;;22.03;15.06
48029;BME280;33808;37.368;127.108;2022-12-05T03:17:43;101828.16;;;22.03;15.35
48029;BME280;33808;37.368;127.108;2022-12-05T03:23:02;101826.84;;;21.81;15.56
48029;BME280;33808;37.368;127.108;2022-12-05T03:25:53;101814.38;;;21.82;15.49
48029;BME280;33808;37.368;127.108;2022-12-05T03:28:44;101802.34;;;21.62;15.76
48029;BME280;33808;37.368;127.108;2022-12-05T03:31:45;101802.34;;;21.62;15.83
48029;BME280;33808;37.368;127.108;2022-12-05T03:34:16;101795.06;;;22.22;15.58
48029;BME280;33808;37.368;127.108;2022-12-05T03:36:52;101790.22;;;22.14;15.27
48029;BME280;33808;37.368;127.108;2022-12-05T03:39:26;101785.84;;;21.98;15.21
48029;BME280;33808;37.368;127.108;2022-12-05T03:45:00;101768.53;;;22.06;15.13
48029;BME280;33808;37.368;127.108;2022-12-05T03:50:34;101768.25;;;22.25;15.02
48029;BME280;33808;37.368;127.108;2022-12-05T03:53:10;101767.06;;;21.87;15.43
48029;BME280;33808;37.368;127.108;2022-12-05T03:55:56;101767.44;;;21.95;15.24
48029;BME280;33808;37.368;127.108;2022-12-05T03:58:51;101766.28;;;21.99;15.21
48029;BME280;33808;37.368;127.108;2022-12-05T04:01:20;101764.94;;;22.21;15.25
48029;BME280;33808;37.368;127.108;2022-12-05T04:04:04;101759.69;;;22.19;15.04
48029;BME280;33808;37.368;127.108;2022-12-05T04:06:38;101750.06;;;22.17;15.32
48029;BME280;33808;37.368;127.108;2022-12-05T04:09:26;101762.00;;;22.53;14.92
48029;BME280;33808;37.368;127.108;2022-12-05T04:12:04;101762.00;;;22.53;14.93
48029;BME280;33808;37.368;127.108;2022-12-05T04:14:41;101748.50;;;22.69;14.65
48029;BME280;33808;37.368;127.108;2022-12-05T04:20:34;101743.69;;;22.61;14.75
48029;BME280;33808;37.368;127.108;2022-12-05T04:23:25;101739.66;;;22.68;14.77
48029;BME280;33808;37.368;127.108;2022-12-05T04:26:20;101735.81;;;22.72;14.63
48029;BME280;33808;37.368;127.108;2022-12-05T04:29:04;101730.34;;;22.61;14.69
48029;BME280;33808;37.368;127.108;2022-12-05T04:31:42;101724.84;;;22.64;14.64
48029;BME280;33808;37.368;127.108;2022-12-05T04:34:13;101718.03;;;22.73;14.78
48029;BME280;33808;37.368;127.108;2022-12-05T04:37:15;101715.91;;;22.91;14.59
48029;BME280;33808;37.368;127.108;2022-12-05T04:39:54;101714.09;;;22.78;14.62
48029;BME280;33808;37.368;127.108;2022-12-05T04:42:27;101706.53;;;22.85;14.82
48029;BME280;33808;37.368;127.108;2022-12-05T04:45:00;101709.06;;;22.74;14.85
48029;BME280;33808;37.368;127.108;2022-12-05T04:47:35;101708.75;;;22.66;14.97
48029;BME280;33808;37.368;127.108;2022-12-05T04:50:07;101696.59;;;22.74;14.90
48029;BME280;33808;37.368;127.108;2022-12-05T04:52:39;101699.38;;;22.73;15.02
48029;BME280;33808;37.368;127.108;2022-12-05T04:55:14;101681.16;;;22.80;14.79
48029;BME280;33808;37.368;127.108;2022-12-05T05:00:21;101682.00;;;22.80;14.79
48029;BME280;33808;37.368;127.108;2022-12-05T05:03:51;101691.19;;;22.89;14.82
48029;BME280;33808;37.368;127.108;2022-12-05T05:06:02;101691.16;;;22.63;14.86
48029;BME280;33808;37.368;127.108;2022-12-05T05:08:32;101679.59;;;22.90;14.43
48029;BME280;33808;37.368;127.108;2022-12-05T05:11:15;101680.53;;;22.89;14.47
48029;BME280;33808;37.368;127.108;2022-12-05T05:13:46;101678.59;;;22.78;14.86
48029;BME280;33808;37.368;127.108;2022-12-05T05:16:19;101682.44;;;22.87;14.69
48029;BME280;33808;37.368;127.108;2022-12-05T05:18:49;101681.91;;;22.94;14.72
48029;BME280;33808;37.368;127.108;2022-12-05T05:21:24;101676.91;;;22.90;14.70
48029;BME280;33808;37.368;127.108;2022-12-05T05:23:55;101673.28;;;22.91;14.73
48029;BME280;33808;37.368;127.108;2022-12-05T05:26:26;101667.97;;;23.04;14.58
48029;BME280;33808;37.368;127.108;2022-12-05T05:28:57;101672.88;;;22.84;14.58
48029;BME280;33808;37.368;127.108;2022-12-05T05:31:27;101667.41;;;22.98;14.60
48029;BME280;33808;37.368;127.108;2022-12-05T05:33:57;101673.84;;;23.22;14.28
48029;BME280;33808;37.368;127.108;2022-12-05T05:36:35;101661.59;;;23.06;14.52
48029;BME280;33808;37.368;127.108;2022-12-05T05:39:09;101666.56;;;22.85;14.71
48029;BME280;33808;37.368;127.108;2022-12-05T05:41:40;101660.53;;;23.09;14.67
48029;BME280;33808;37.368;127.108;2022-12-05T05:44:09;101658.34;;;22.75;14.86
48029;BME280;33808;37.368;127.108;2022-12-05T05:46:39;101658.38;;;22.88;14.63
48029;BME280;33808;37.368;127.108;2022-12-05T05:49:09;101653.03;;;22.88;14.85
48029;BME280;33808;37.368;127.108;2022-12-05T05:51:39;101651.09;;;23.03;14.58
48029;BME280;33808;37.368;127.108;2022-12-05T05:54:08;101654.22;;;22.97;14.95
48029;BME280;33808;37.368;127.108;2022-12-05T05:56:39;101639.19;;;23.22;14.95
48029;BME280;33808;37.368;127.108;2022-12-05T05:59:09;101648.38;;;23.18;15.11
48029;BME280;33808;37.368;127.108;2022-12-05T06:01:38;101651.41;;;23.37;14.99
48029;BME280;33808;37.368;127.108;2022-12-05T06:04:08;101640.75;;;23.37;15.03
48029;BME280;33808;37.368;127.108;2022-12-05T06:06:38;101647.56;;;23.41;14.81
48029;BME280;33808;37.368;127.108;2022-12-05T06:09:08;101642.81;;;22.95;15.26
48029;BME280;33808;37.368;127.108;2022-12-05T06:11:38;101631.72;;;22.75;15.15
48029;BME280;33808;37.368;127.108;2022-12-05T06:14:08;101629.13;;;22.61;15.19
48029;BME280;33808;37.368;127.108;2022-12-05T06:16:38;101627.03;;;22.26;15.54
48029;BME280;33808;37.368;127.108;2022-12-05T06:19:07;101630.25;;;22.04;15.53
48029;BME280;33808;37.368;127.108;2022-12-05T06:21:37;101630.31;;;21.90;15.72
48029;BME280;33808;37.368;127.108;2022-12-05T06:24:07;101630.78;;;21.82;16.05
48029;BME280;33808;37.368;127.108;2022-12-05T06:26:37;101618.50;;;21.67;15.85
48029;BME280;33808;37.368;127.108;2022-12-05T06:29:06;101620.38;;;21.79;16.02
48029;BME280;33808;37.368;127.108;2022-12-05T06:31:36;101624.56;;;21.69;16.24
48029;BME280;33808;37.368;127.108;2022-12-05T06:34:06;101625.22;;;21.72;16.16
48029;BME280;33808;37.368;127.108;2022-12-05T06:36:36;101625.91;;;21.61;16.00
48029;BME280;33808;37.368;127.108;2022-12-05T06:39:05;101630.31;;;21.48;16.17
48029;BME280;33808;37.368;127.108;2022-12-05T06:41:35;101617.03;;;21.48;16.23
48029;BME280;33808;37.368;127.108;2022-12-05T06:44:04;101618.84;;;21.48;16.39
48029;BME280;33808;37.368;127.108;2022-12-05T06:46:34;101621.41;;;21.49;16.42
48029;BME280;33808;37.368;127.108;2022-12-05T06:49:04;101621.00;;;21.41;16.31
48029;BME280;33808;37.368;127.108;2022-12-05T06:51:33;101623.75;;;21.39;16.36
48029;BME280;33808;37.368;127.108;2022-12-05T06:54:03;101620.06;;;21.42;16.50
48029;BME280;33808;37.368;127.108;2022-12-05T06:56:33;101621.56;;;21.32;16.38
48029;BME280;33808;37.368;127.108;2022-12-05T06:59:03;101617.81;;;21.21;16.59
48029;BME280;33808;37.368;127.108;2022-12-05T07:01:32;101620.25;;;21.24;16.72
48029;BME280;33808;37.368;127.108;2022-12-05T07:04:19;101622.16;;;21.22;16.47
48029;BME280;33808;37.368;127.108;2022-12-05T07:06:53;101618.94;;;21.17;16.48
48029;BME280;33808;37.368;127.108;2022-12-05T07:09:25;101614.66;;;21.15;16.49
48029;BME280;33808;37.368;127.108;2022-12-05T07:12:14;101618.63;;;21.08;16.63
48029;BME280;33808;37.368;127.108;2022-12-05T07:14:44;101612.19;;;21.12;16.44
48029;BME280;33808;37.368;127.108;2022-12-05T07:17:20;101615.06;;;21.09;16.70
48029;BME280;33808;37.368;127.108;2022-12-05T07:19:51;101621.38;;;21.06;16.59
48029;BME280;33808;37.368;127.108;2022-12-05T07:22:22;101617.97;;;21.04;16.58
48029;BME280;33808;37.368;127.108;2022-12-05T07:24:52;101620.84;;;21.01;16.48
48029;BME280;33808;37.368;127.108;2022-12-05T07:27:22;101615.63;;;20.99;16.58
48029;BME280;33808;37.368;127.108;2022-12-05T07:29:54;101612.38;;;20.94;16.55
48029;BME280;33808;37.368;127.108;2022-12-05T07:32:24;101618.19;;;21.01;16.41
48029;BME280;33808;37.368;127.108;2022-12-05T07:34:54;101622.91;;;20.96;16.52
48029;BME280;33808;37.368;127.108;2022-12-05T07:37:24;101609.44;;;20.84;16.73
48029;BME280;33808;37.368;127.108;2022-12-05T07:39:53;101615.53;;;21.01;16.90
48029;BME280;33808;37.368;127.108;2022-12-05T07:42:23;101617.59;;;21.53;16.32
48029;BME280;33808;37.368;127.108;2022-12-05T07:44:53;101613.66;;;22.13;15.67
48029;BME280;33808;37.368;127.108;2022-12-05T07:47:23;101616.75;;;22.34;15.38
48029;BME280;33808;37.368;127.108;2022-12-05T07:49:52;101609.84;;;22.57;15.12
48029;BME280;33808;37.368;127.108;2022-12-05T07:52:23;101614.13;;;22.73;14.93
48029;BME280;33808;37.368;127.108;2022-12-05T07:54:52;101607.81;;;23.00;14.74
48029;BME280;33808;37.368;127.108;2022-12-05T07:57:22;101613.19;;;23.12;14.73
48029;BME280;33808;37.368;127.108;2022-12-05T07:59:52;101608.88;;;23.23;14.44
48029;BME280;33808;37.368;127.108;2022-12-05T08:02:22;101615.47;;;23.30;14.45
48029;BME280;33808;37.368;127.108;2022-12-05T08:04:51;101616.84;;;23.35;14.42
48029;BME280;33808;37.368;127.108;2022-12-05T08:07:21;101621.03;;;23.40;14.44
48029;BME280;33808;37.368;127.108;2022-12-05T08:09:51;101618.00;;;23.44;14.29
48029;BME280;33808;37.368;127.108;2022-12-05T08:12:21;101624.59;;;23.51;14.09
48029;BME280;33808;37.368;127.108;2022-12-05T08:14:50;101616.97;;;23.47;14.07
48029;BME280;33808;37.368;127.108;2022-12-05T08:17:20;101619.66;;;23.34;14.13
48029;BME280;33808;37.368;127.108;2022-12-05T08:19:50;101614.75;;;23.15;14.15
48029;BME280;33808;37.368;127.108;2022-12-05T08:22:19;101609.34;;;23.04;14.09
48029;BME280;33808;37.368;127.108;2022-12-05T08:24:51;101608.38;;;22.92;14.18
48029;BME280;33808;37.368;127.108;2022-12-05T08:27:22;101606.34;;;22.83;14.16
48029;BME280;33808;37.368;127.108;2022-12-05T08:29:53;101613.34;;;22.71;14.13
48029;BME280;33808;37.368;127.108;2022-12-05T08:32:23;101608.38;;;22.66;14.14
48029;BME280;33808;37.368;127.108;2022-12-05T08:34:53;101608.06;;;22.58;14.21
48029;BME280;33808;37.368;127.108;2022-12-05T08:37:22;101608.69;;;22.49;14.18
48029;BME280;33808;37.368;127.108;2022-12-05T08:39:52;101605.88;;;22.37;14.04
48029;BME280;33808;37.368;127.108;2022-12-05T08:42:22;101614.38;;;22.30;14.29
48029;BME280;33808;37.368;127.108;2022-12-05T08:44:52;101612.88;;;22.26;14.25
48029;BME280;33808;37.368;127.108;2022-12-05T08:47:21;101608.41;;;22.26;14.31
48029;BME280;33808;37.368;127.108;2022-12-05T08:49:51;101597.50;;;22.16;14.23
48029;BME280;33808;37.368;127.108;2022-12-05T08:52:21;101603.25;;;22.10;14.23
48029;BME280;33808;37.368;127.108;2022-12-05T08:54:51;101599.09;;;22.06;14.12
48029;BME280;33808;37.368;127.108;2022-12-05T08:57:20;101610.88;;;22.02;14.29
48029;BME280;33808;37.368;127.108;2022-12-05T08:59:50;101604.81;;;22.00;14.41
48029;BME280;33808;37.368;127.108;2022-12-05T09:02:19;101605.88;;;21.97;14.37
48029;BME280;33808;37.368;127.108;2022-12-05T09:04:51;101602.56;;;21.94;14.47
48029;BME280;33808;37.368;127.108;2022-12-05T09:07:21;101610.81;;;21.89;14.54
48029;BME280;33808;37.368;127.108;2022-12-05T09:09:50;101609.31;;;21.85;14.49
48029;BME280;33808;37.368;127.108;2022-12-05T09:12:20;101601.53;;;21.82;14.44
48029;BME280;33808;37.368;127.108;2022-12-05T09:14:49;101606.00;;;21.81;14.54
48029;BME280;33808;37.368;127.108;2022-12-05T09:17:19;101618.00;;;21.74;14.58
48029;BME280;33808;37.368;127.108;2022-12-05T09:19:50;101615.56;;;21.71;14.58
48029;BME280;33808;37.368;127.108;2022-12-05T09:22:20;101620.13;;;21.69;14.64
48029;BME280;33808;37.368;127.108;2022-12-05T09:24:53;101620.97;;;21.70;14.45
48029;BME280;33808;37.368;127.108;2022-12-05T09:27:23;101619.47;;;21.66;14.52
48029;BME280;33808;37.368;127.108;2022-12-05T09:29:52;101613.28;;;21.65;14.47
48029;BME280;33808;37.368;127.108;2022-12-05T09:32:22;101615.50;;;21.58;14.49
48029;BME280;33808;37.368;127.108;2022-12-05T09:34:52;101620.72;;;21.60;14.35
48029;BME280;33808;37.368;127.108;2022-12-05T09:37:22;101624.22;;;21.60;14.62
48029;BME280;33808;37.368;127.108;2022-12-05T09:40:14;101625.47;;;21.55;14.57
48029;BME280;33808;37.368;127.108;2022-12-05T09:43:03;101617.78;;;21.50;14.55
48029;BME280;33808;37.368;127.108;2022-12-05T09:45:50;101619.78;;;21.47;14.59
48029;BME280;33808;37.368;127.108;2022-12-05T09:48:22;101619.09;;;21.43;14.68
48029;BME280;33808;37.368;127.108;2022-12-05T09:51:02;101623.66;;;21.41;14.63
48029;BME280;33808;37.368;127.108;2022-12-05T09:53:37;101622.22;;;21.35;14.72
48029;BME280;33808;37.368;127.108;2022-12-05T09:58:54;101624.13;;;21.33;14.64
48029;BME280;33808;37.368;127.108;2022-12-05T10:01:45;101629.44;;;21.33;14.50
48029;BME280;33808;37.368;127.108;2022-12-05T10:07:33;101634.31;;;21.27;14.51
48029;BME280;33808;37.368;127.108;2022-12-05T10:26:37;101651.28;;;21.10;14.55
48029;BME280;33808;37.368;127.108;2022-12-05T10:29:20;101653.09;;;21.09;14.66
48029;BME280;33808;37.368;127.108;2022-12-05T10:32:18;101657.47;;;21.10;14.73
48029;BME280;33808;37.368;127.108;2022-12-05T10:34:45;101655.19;;;21.04;14.76
48029;BME280;33808;37.368;127.108;2022-12-05T10:37:20;101659.72;;;21.02;14.67
48029;BME280;33808;37.368;127.108;2022-12-05T10:39:51;101661.38;;;21.04;14.70
48029;BME280;33808;37.368;127.108;2022-12-05T10:42:31;101649.88;;;21.04;14.72
48029;BME280;33808;37.368;127.108;2022-12-05T10:45:07;101652.81;;;20.99;14.83
48029;BME280;33808;37.368;127.108;2022-12-05T10:47:37;101655.56;;;20.98;14.58
48029;BME280;33808;37.368;127.108;2022-12-05T10:50:38;101646.16;;;20.92;14.65
48029;BME280;33808;37.368;127.108;2022-12-05T10:53:07;101631.81;;;20.95;14.63
48029;BME280;33808;37.368;127.108;2022-12-05T10:55:46;101628.72;;;20.88;14.75
48029;BME280;33808;37.368;127.108;2022-12-05T10:58:36;101626.22;;;20.85;14.66
48029;BME280;33808;37.368;127.108;2022-12-05T11:01:09;101632.31;;;20.87;14.65
48029;BME280;33808;37.368;127.108;2022-12-05T11:03:43;101625.38;;;20.84;14.63
48029;BME280;33808;37.368;127.108;2022-12-05T11:06:18;101625.47;;;20.83;14.74
48029;BME280;33808;37.368;127.108;2022-12-05T11:09:22;101626.69;;;20.77;14.63
48029;BME280;33808;37.368;127.108;2022-12-05T11:12:18;101626.69;;;20.77;14.54
48029;BME280;33808;37.368;127.108;2022-12-05T11:17:37;101629.53;;;20.74;14.64
48029;BME280;33808;37.368;127.108;2022-12-05T11:22:45;101628.09;;;20.69;14.54
48029;BME280;33808;37.368;127.108;2022-12-05T11:25:44;101624.59;;;20.68;14.51
48029;BME280;33808;37.368;127.108;2022-12-05T11:31:00;101630.97;;;20.65;14.71
48029;BME280;33808;37.368;127.108;2022-12-05T11:33:33;101643.38;;;20.65;14.54
48029;BME280;33808;37.368;127.108;2022-12-05T11:38:37;101638.06;;;20.65;14.49
48029;BME280;33808;37.368;127.108;2022-12-05T11:55:37;101636.13;;;20.53;14.74
48029;BME280;33808;37.368;127.108;2022-12-05T12:01:00;101645.38;;;20.45;14.83
48029;BME280;33808;37.368;127.108;2022-12-05T12:28:29;101622.88;;;20.37;14.61
48029;BME280;33808;37.368;127.108;2022-12-05T12:31:37;101622.03;;;20.36;14.70
48029;BME280;33808;37.368;127.108;2022-12-05T12:34:54;101616.91;;;20.33;14.73
48029;BME280;33808;37.368;127.108;2022-12-05T12:40:21;101617.94;;;20.31;14.74
48029;BME280;33808;37.368;127.108;2022-12-05T12:46:02;101615.47;;;20.27;14.67
48029;BME280;33808;37.368;127.108;2022-12-05T12:51:31;101615.75;;;20.23;14.53
48029;BME280;33808;37.368;127.108;2022-12-05T12:54:13;101616.69;;;20.22;14.79
48029;BME280;33808;37.368;127.108;2022-12-05T13:03:10;101610.69;;;20.18;14.98
48029;BME280;33808;37.368;127.108;2022-12-05T13:05:49;101611.63;;;20.17;14.82
48029;BME280;33808;37.368;127.108;2022-12-05T13:08:35;101614.47;;;20.14;14.73
48029;BME280;33808;37.368;127.108;2022-12-05T13:11:10;101618.81;;;20.15;14.76
48029;BME280;33808;37.368;127.108;2022-12-05T13:13:51;101616.16;;;20.15;14.71
48029;BME280;33808;37.368;127.108;2022-12-05T13:16:36;101613.63;;;20.14;14.81
48029;BME280;33808;37.368;127.108;2022-12-05T13:21:51;101615.31;;;20.15;14.63
48029;BME280;33808;37.368;127.108;2022-12-05T13:24:25;101615.41;;;20.13;14.85
48029;BME280;33808;37.368;127.108;2022-12-05T13:27:01;101609.25;;;20.13;14.82
48029;BME280;33808;37.368;127.108;2022-12-05T13:29:40;101606.59;;;20.13;14.87
48029;BME280;33808;37.368;127.108;2022-12-05T13:32:32;101610.28;;;20.10;14.74
48029;BME280;33808;37.368;127.108;2022-12-05T13:35:41;101616.53;;;20.09;14.92
48029;BME280;33808;37.368;127.108;2022-12-05T13:38:33;101606.00;;;20.07;14.74
48029;BME280;33808;37.368;127.108;2022-12-05T13:41:45;101617.66;;;20.05;14.83
48029;BME280;33808;37.368;127.108;2022-12-05T13:45:06;101609.78;;;20.03;14.88
48029;BME280;33808;37.368;127.108;2022-12-05T13:53:30;101614.50;;;19.98;15.06
48029;BME280;33808;37.368;127.108;2022-12-05T13:56:04;101620.75;;;19.97;14.89
48029;BME280;33808;37.368;127.108;2022-12-05T14:04:02;101603.47;;;19.90;14.82
48029;BME280;33808;37.368;127.108;2022-12-05T14:14:58;101593.13;;;19.85;15.03
48029;BME280;33808;37.368;127.108;2022-12-05T14:17:43;101590.38;;;19.87;14.92
48029;BME280;33808;37.368;127.108;2022-12-05T14:34:22;101587.13;;;19.82;15.12
48029;BME280;33808;37.368;127.108;2022-12-05T14:39:49;101588.25;;;19.78;14.90
48029;BME280;33808;37.368;127.108;2022-12-05T14:42:25;101590.06;;;19.77;15.02
48029;BME280;33808;37.368;127.108;2022-12-05T14:44:58;101585.59;;;19.78;15.09
48029;BME280;33808;37.368;127.108;2022-12-05T14:47:31;101584.84;;;19.76;14.89
48029;BME280;33808;37.368;127.108;2022-12-05T14:59:04;101576.34;;;19.69;14.94
48029;BME280;33808;37.368;127.108;2022-12-05T15:01:44;101567.53;;;19.68;15.16
48029;BME280;33808;37.368;127.108;2022-12-05T15:04:40;101565.94;;;19.66;15.01
48029;BME280;33808;37.368;127.108;2022-12-05T15:07:17;101566.78;;;19.66;14.99
48029;BME280;33808;37.368;127.108;2022-12-05T15:12:48;101552.75;;;19.64;14.93
48029;BME280;33808;37.368;127.108;2022-12-05T15:15:46;101547.53;;;19.63;15.13
48029;BME280;33808;37.368;127.108;2022-12-05T15:20:57;101537.78;;;19.63;15.17
48029;BME280;33808;37.368;127.108;2022-12-05T15:23:46;101532.47;;;19.63;14.94
48029;BME280;33808;37.368;127.108;2022-12-05T15:26:25;101522.91;;;19.61;15.01
48029;BME280;33808;37.368;127.108;2022-12-05T15:29:22;101518.66;;;19.58;15.06
48029;BME280;33808;37.368;127.108;2022-12-05T15:42:37;101488.97;;;19.51;15.13
48029;BME280;33808;37.368;127.108;2022-12-05T15:47:44;101502.06;;;19.55;15.18
48029;BME280;33808;37.368;127.108;2022-12-05T15:52:57;101499.50;;;19.53;15.21
48029;BME280;33808;37.368;127.108;2022-12-05T15:55:38;101513.59;;;19.54;15.01
48029;BME280;33808;37.368;127.108;2022-12-05T15:58:23;101508.28;;;19.54;14.95
48029;BME280;33808;37.368;127.108;2022-12-05T16:01:37;101509.13;;;19.54;14.92
48029;BME280;33808;37.368;127.108;2022-12-05T16:06:34;101510.53;;;19.45;15.01
48029;BME280;33808;37.368;127.108;2022-12-05T16:09:12;101505.41;;;19.42;14.98
48029;BME280;33808;37.368;127.108;2022-12-05T16:14:51;101507.13;;;19.43;15.08
48029;BME280;33808;37.368;127.108;2022-12-05T16:17:35;101513.28;;;19.44;14.97
48029;BME280;33808;37.368;127.108;2022-12-05T16:20:27;101517.81;;;19.42;15.20
48029;BME280;33808;37.368;127.108;2022-12-05T16:23:20;101513.44;;;19.41;15.16
48029;BME280;33808;37.368;127.108;2022-12-05T16:25:51;101513.50;;;19.39;15.16
48029;BME280;33808;37.368;127.108;2022-12-05T16:28:21;101509.09;;;19.40;15.32
48029;BME280;33808;37.368;127.108;2022-12-05T16:30:59;101508.22;;;19.39;15.29
48029;BME280;33808;37.368;127.108;2022-12-05T16:33:30;101506.44;;;19.40;14.92